KJCT - Junction/Kimble Cnty, TX, US

Issued at 2328 UTC 17 Jan 2022
Updated at 0457 UTC 18 Jan 2022
Potential Impact None Slight Moderate High
Time0451Z 18/05Z 18/06Z 18/07Z 18/08Z 18/09Z 18/10Z 18/11Z 18/12Z 18/13Z 18/14Z 18/15Z 18/16Z 18/17Z>>
Type OBS PRVL PRVL PRVL PRVL PRVL PRVL PRVL PRVL PRVL PRVL PRVL PRVL PRVL
VIS 10 >6 >6 >6 >6 >6 >6 >6 >6 >6 >6 >6 >6 >6
CIG -- -- -- -- -- -- -- -- -- -- -- -- -- --
Cover CLR SKC SKC SKC SKC SKC SKC SKC SKC SKC SKC SKC SKC SKC
FltCat VFR VFR VFR VFR VFR VFR VFR VFR VFR VFR VFR VFR VFR VFR
WX -- -- -- -- -- -- -- -- -- -- -- -- -- --
WDir 200 180 180 180 180 180 180 180 180 180 180 180 210 210
WSpd 3 7 7 7 7 7 7 7 7 7 7 7 11 11
WGst -- -- -- -- -- -- -- -- -- -- -- -- 18 18
WSHgt -- -- -- -- -- -- -- -- -- -- -- -- -- --
WSDir -- -- -- -- -- -- -- -- -- -- -- -- -- --
WSSpd -- -- -- -- -- -- -- -- -- -- -- -- -- --
Raw TAF
KJCT 172328Z 1800/1824 18007KT P6SM SKC
  FM181600 21011G18KT P6SM SKC


Raw METAR
KJCT 180451Z AUTO 20003KT 10SM CLR 09/M10 A3003 RMK AO2 SLP153 T00891100
KJCT 180351Z AUTO 00000KT 10SM CLR 08/M10 A3004 RMK AO2 SLP161 T00831100
KJCT 180251Z AUTO 00000KT 10SM CLR 11/M11 A3004 RMK AO2 SLP162 T01111106 51007
KJCT 180151Z AUTO 18004KT 10SM CLR 14/M11 A3003 RMK AO2 SLP160 T01391111

METAR Board
Radar Display
Forecast Discussion
For situational awareness. Not to be used for flight planning purposes.